ロングイェールビーン の空港の天気 - METARとTAF

スヴァールバル空港 ( ENSB / LYR ) - スヴァールバル諸島・ヤンマイエン島 ロングイェールビーン
飛行場実況気象(Metar)
観測時間08/25 20:50 CEST (08/25 18:50 UTC)
風向・風速北北西 2m/s
視程10km以上
天気現象
全天の4割程度の雲 雲底高度 340m
全天の8割程度の雲 雲底高度 910m
気温6℃
湿度70%
気圧1016hPa
METARENSB 251850Z 34003KT 9999 SCT011 BKN030 06/01 Q1016 RMK WIND 1400FT 29001KT
過去の天気等 Google飛行場航空写真 Wunderground天気予報

過去48時間のMETAR

飛行場予報(TAF)
発表時間: -
25日20時 CEST ~ 26日14時 CEST に一時的に
全天の8割程度の雲 雲底高度 370m
TAF ENSB 2518/2618 VRB05KT 9999 -RA FEW010 BKN025
TEMPO 2518/2612 BKN012